sensor_id;sensor_type;location;lat;lon;timestamp;P1;durP1;ratioP1;P2;durP2;ratioP2
16737;SDS011;17906;47.684;10.806;2023-12-20T00:01:08;5.20;;;3.27;;
16737;SDS011;17906;47.684;10.806;2023-12-20T00:03:35;5.40;;;2.93;;
16737;SDS011;17906;47.684;10.806;2023-12-20T00:06:01;7.47;;;3.33;;
16737;SDS011;17906;47.684;10.806;2023-12-20T00:08:28;6.80;;;3.63;;
16737;SDS011;17906;47.684;10.806;2023-12-20T00:10:55;8.13;;;3.47;;
16737;SDS011;17906;47.684;10.806;2023-12-20T00:13:21;7.17;;;3.83;;
16737;SDS011;17906;47.684;10.806;2023-12-20T00:15:49;5.93;;;3.30;;
16737;SDS011;17906;47.684;10.806;2023-12-20T00:18:16;6.27;;;3.17;;
16737;SDS011;17906;47.684;10.806;2023-12-20T00:20:42;5.50;;;3.10;;
16737;SDS011;17906;47.684;10.806;2023-12-20T00:23:09;4.53;;;2.70;;
16737;SDS011;17906;47.684;10.806;2023-12-20T00:25:36;5.40;;;3.00;;
16737;SDS011;17906;47.684;10.806;2023-12-20T00:28:02;5.50;;;2.57;;
16737;SDS011;17906;47.684;10.806;2023-12-20T00:30:29;4.83;;;3.03;;
16737;SDS011;17906;47.684;10.806;2023-12-20T00:32:57;4.80;;;2.67;;
16737;SDS011;17906;47.684;10.806;2023-12-20T00:35:24;4.83;;;2.77;;
16737;SDS011;17906;47.684;10.806;2023-12-20T00:37:50;11.27;;;6.60;;
16737;SDS011;17906;47.684;10.806;2023-12-20T00:40:17;9.20;;;4.90;;
16737;SDS011;17906;47.684;10.806;2023-12-20T00:42:43;7.93;;;3.80;;
16737;SDS011;17906;47.684;10.806;2023-12-20T00:45:09;6.93;;;3.80;;
16737;SDS011;17906;47.684;10.806;2023-12-20T00:47:36;6.23;;;3.60;;
16737;SDS011;17906;47.684;10.806;2023-12-20T00:50:04;6.50;;;3.90;;
16737;SDS011;17906;47.684;10.806;2023-12-20T00:52:31;8.17;;;4.23;;
16737;SDS011;17906;47.684;10.806;2023-12-20T00:54:58;9.60;;;5.33;;
16737;SDS011;17906;47.684;10.806;2023-12-20T00:57:25;9.33;;;4.60;;
16737;SDS011;17906;47.684;10.806;2023-12-20T00:59:51;6.10;;;3.47;;
16737;SDS011;17906;47.684;10.806;2023-12-20T01:02:18;6.87;;;3.67;;
16737;SDS011;17906;47.684;10.806;2023-12-20T01:04:45;6.00;;;3.37;;
16737;SDS011;17906;47.684;10.806;2023-12-20T01:07:13;5.93;;;3.13;;
16737;SDS011;17906;47.684;10.806;2023-12-20T01:09:39;5.77;;;2.70;;
16737;SDS011;17906;47.684;10.806;2023-12-20T01:12:06;4.93;;;2.70;;
16737;SDS011;17906;47.684;10.806;2023-12-20T01:14:32;3.70;;;2.30;;
16737;SDS011;17906;47.684;10.806;2023-12-20T01:16:59;4.50;;;2.60;;
16737;SDS011;17906;47.684;10.806;2023-12-20T01:19:26;5.80;;;2.50;;
16737;SDS011;17906;47.684;10.806;2023-12-20T01:21:54;4.43;;;2.77;;
16737;SDS011;17906;47.684;10.806;2023-12-20T01:24:22;4.50;;;2.27;;
16737;SDS011;17906;47.684;10.806;2023-12-20T01:26:49;3.90;;;2.40;;
16737;SDS011;17906;47.684;10.806;2023-12-20T01:29:15;4.17;;;2.13;;
16737;SDS011;17906;47.684;10.806;2023-12-20T01:31:42;4.33;;;2.23;;
16737;SDS011;17906;47.684;10.806;2023-12-20T01:34:09;3.93;;;2.30;;
16737;SDS011;17906;47.684;10.806;2023-12-20T01:36:35;4.13;;;2.20;;
16737;SDS011;17906;47.684;10.806;2023-12-20T01:39:02;3.47;;;2.00;;
16737;SDS011;17906;47.684;10.806;2023-12-20T01:41:30;3.07;;;1.67;;
16737;SDS011;17906;47.684;10.806;2023-12-20T01:43:57;3.37;;;1.80;;
16737;SDS011;17906;47.684;10.806;2023-12-20T01:46:23;3.53;;;1.90;;
16737;SDS011;17906;47.684;10.806;2023-12-20T01:48:50;2.83;;;1.67;;
16737;SDS011;17906;47.684;10.806;2023-12-20T01:51:18;2.40;;;1.80;;
16737;SDS011;17906;47.684;10.806;2023-12-20T01:53:45;4.07;;;1.83;;
16737;SDS011;17906;47.684;10.806;2023-12-20T01:56:13;3.63;;;1.80;;
16737;SDS011;17906;47.684;10.806;2023-12-20T01:58:43;3.07;;;1.60;;
16737;SDS011;17906;47.684;10.806;2023-12-20T02:01:11;4.03;;;1.80;;
16737;SDS011;17906;47.684;10.806;2023-12-20T02:03:38;3.37;;;1.70;;
16737;SDS011;17906;47.684;10.806;2023-12-20T02:06:05;3.13;;;1.73;;
16737;SDS011;17906;47.684;10.806;2023-12-20T02:08:32;4.10;;;2.10;;
16737;SDS011;17906;47.684;10.806;2023-12-20T02:10:58;3.23;;;2.00;;
16737;SDS011;17906;47.684;10.806;2023-12-20T02:13:26;3.40;;;1.90;;
16737;SDS011;17906;47.684;10.806;2023-12-20T02:15:54;2.87;;;1.70;;
16737;SDS011;17906;47.684;10.806;2023-12-20T02:18:21;3.37;;;1.80;;
16737;SDS011;17906;47.684;10.806;2023-12-20T02:20:48;3.63;;;1.70;;
16737;SDS011;17906;47.684;10.806;2023-12-20T02:23:16;2.97;;;1.70;;
16737;SDS011;17906;47.684;10.806;2023-12-20T02:25:43;3.90;;;1.73;;
16737;SDS011;17906;47.684;10.806;2023-12-20T02:28:09;3.37;;;1.90;;
16737;SDS011;17906;47.684;10.806;2023-12-20T02:30:36;3.10;;;1.60;;
16737;SDS011;17906;47.684;10.806;2023-12-20T02:33:03;3.23;;;1.80;;
16737;SDS011;17906;47.684;10.806;2023-12-20T02:35:33;2.97;;;1.63;;
16737;SDS011;17906;47.684;10.806;2023-12-20T02:38:00;2.97;;;1.80;;
16737;SDS011;17906;47.684;10.806;2023-12-20T02:40:28;3.67;;;1.87;;
16737;SDS011;17906;47.684;10.806;2023-12-20T02:42:54;2.93;;;1.77;;
16737;SDS011;17906;47.684;10.806;2023-12-20T02:45:21;3.73;;;2.00;;
16737;SDS011;17906;47.684;10.806;2023-12-20T02:47:47;3.00;;;1.80;;
16737;SDS011;17906;47.684;10.806;2023-12-20T02:50:14;3.87;;;2.10;;
16737;SDS011;17906;47.684;10.806;2023-12-20T02:52:42;2.60;;;1.43;;
16737;SDS011;17906;47.684;10.806;2023-12-20T02:55:10;3.30;;;1.90;;
16737;SDS011;17906;47.684;10.806;2023-12-20T02:57:38;4.37;;;1.80;;
16737;SDS011;17906;47.684;10.806;2023-12-20T03:00:07;3.37;;;2.07;;
16737;SDS011;17906;47.684;10.806;2023-12-20T03:02:34;4.33;;;2.00;;
16737;SDS011;17906;47.684;10.806;2023-12-20T03:05:01;3.27;;;1.90;;
16737;SDS011;17906;47.684;10.806;2023-12-20T03:07:28;5.07;;;2.27;;
16737;SDS011;17906;47.684;10.806;2023-12-20T03:09:54;3.10;;;1.87;;
16737;SDS011;17906;47.684;10.806;2023-12-20T03:12:21;5.63;;;2.20;;
16737;SDS011;17906;47.684;10.806;2023-12-20T03:14:49;4.07;;;2.10;;
16737;SDS011;17906;47.684;10.806;2023-12-20T03:17:15;4.73;;;2.50;;
16737;SDS011;17906;47.684;10.806;2023-12-20T03:19:42;4.80;;;2.17;;
16737;SDS011;17906;47.684;10.806;2023-12-20T03:22:08;3.87;;;2.17;;
16737;SDS011;17906;47.684;10.806;2023-12-20T03:24:35;6.03;;;2.70;;
16737;SDS011;17906;47.684;10.806;2023-12-20T03:27:02;7.03;;;2.10;;
16737;SDS011;17906;47.684;10.806;2023-12-20T03:29:29;4.53;;;2.50;;
16737;SDS011;17906;47.684;10.806;2023-12-20T03:31:57;4.30;;;2.30;;
16737;SDS011;17906;47.684;10.806;2023-12-20T03:34:23;3.00;;;1.70;;
16737;SDS011;17906;47.684;10.806;2023-12-20T03:36:50;3.00;;;1.80;;
16737;SDS011;17906;47.684;10.806;2023-12-20T03:39:17;3.83;;;1.87;;
16737;SDS011;17906;47.684;10.806;2023-12-20T03:41:43;3.90;;;1.90;;
16737;SDS011;17906;47.684;10.806;2023-12-20T03:44:10;3.37;;;1.80;;
16737;SDS011;17906;47.684;10.806;2023-12-20T03:46:36;2.80;;;1.70;;
16737;SDS011;17906;47.684;10.806;2023-12-20T03:49:04;2.77;;;1.63;;
16737;SDS011;17906;47.684;10.806;2023-12-20T03:51:31;3.57;;;1.50;;
16737;SDS011;17906;47.684;10.806;2023-12-20T03:53:57;2.73;;;1.37;;
16737;SDS011;17906;47.684;10.806;2023-12-20T03:56:24;2.07;;;1.30;;
16737;SDS011;17906;47.684;10.806;2023-12-20T03:58:50;2.37;;;1.20;;
16737;SDS011;17906;47.684;10.806;2023-12-20T04:01:17;2.27;;;1.00;;
16737;SDS011;17906;47.684;10.806;2023-12-20T04:03:43;2.37;;;1.10;;
16737;SDS011;17906;47.684;10.806;2023-12-20T04:06:12;2.33;;;0.90;;
16737;SDS011;17906;47.684;10.806;2023-12-20T04:08:42;2.00;;;0.83;;
16737;SDS011;17906;47.684;10.806;2023-12-20T04:11:09;1.10;;;0.70;;
16737;SDS011;17906;47.684;10.806;2023-12-20T04:13:35;1.83;;;1.00;;
16737;SDS011;17906;47.684;10.806;2023-12-20T04:16:01;1.90;;;1.00;;
16737;SDS011;17906;47.684;10.806;2023-12-20T04:18:28;1.50;;;1.03;;
16737;SDS011;17906;47.684;10.806;2023-12-20T04:20:55;2.17;;;1.10;;
16737;SDS011;17906;47.684;10.806;2023-12-20T04:23:23;1.20;;;0.90;;
16737;SDS011;17906;47.684;10.806;2023-12-20T04:25:49;1.60;;;1.10;;
16737;SDS011;17906;47.684;10.806;2023-12-20T04:28:16;1.60;;;0.90;;
16737;SDS011;17906;47.684;10.806;2023-12-20T04:30:42;1.87;;;0.87;;
16737;SDS011;17906;47.684;10.806;2023-12-20T04:33:09;2.33;;;1.10;;
16737;SDS011;17906;47.684;10.806;2023-12-20T04:35:36;1.73;;;0.87;;
16737;SDS011;17906;47.684;10.806;2023-12-20T04:38:02;1.63;;;0.90;;
16737;SDS011;17906;47.684;10.806;2023-12-20T04:40:31;1.67;;;1.00;;
16737;SDS011;17906;47.684;10.806;2023-12-20T04:42:57;1.80;;;1.03;;
16737;SDS011;17906;47.684;10.806;2023-12-20T04:45:24;1.37;;;1.00;;
16737;SDS011;17906;47.684;10.806;2023-12-20T04:47:51;1.67;;;1.00;;
16737;SDS011;17906;47.684;10.806;2023-12-20T04:50:17;2.30;;;1.10;;
16737;SDS011;17906;47.684;10.806;2023-12-20T04:52:44;3.67;;;1.30;;
16737;SDS011;17906;47.684;10.806;2023-12-20T04:55:11;2.20;;;1.00;;
16737;SDS011;17906;47.684;10.806;2023-12-20T04:57:39;2.60;;;1.17;;
16737;SDS011;17906;47.684;10.806;2023-12-20T05:00:06;1.97;;;1.07;;
16737;SDS011;17906;47.684;10.806;2023-12-20T05:02:34;2.50;;;1.03;;
16737;SDS011;17906;47.684;10.806;2023-12-20T05:05:02;3.23;;;1.37;;
16737;SDS011;17906;47.684;10.806;2023-12-20T05:07:28;1.30;;;1.00;;
16737;SDS011;17906;47.684;10.806;2023-12-20T05:09:55;4.90;;;1.00;;
16737;SDS011;17906;47.684;10.806;2023-12-20T05:12:22;1.80;;;0.90;;
16737;SDS011;17906;47.684;10.806;2023-12-20T05:14:50;1.37;;;0.90;;
16737;SDS011;17906;47.684;10.806;2023-12-20T05:17:18;1.67;;;0.93;;
16737;SDS011;17906;47.684;10.806;2023-12-20T05:19:45;1.83;;;0.93;;
16737;SDS011;17906;47.684;10.806;2023-12-20T05:22:12;1.40;;;0.77;;
16737;SDS011;17906;47.684;10.806;2023-12-20T05:24:38;1.20;;;0.70;;
16737;SDS011;17906;47.684;10.806;2023-12-20T05:27:05;1.03;;;0.70;;
16737;SDS011;17906;47.684;10.806;2023-12-20T05:29:32;1.43;;;0.90;;
16737;SDS011;17906;47.684;10.806;2023-12-20T05:32:00;2.70;;;1.30;;
16737;SDS011;17906;47.684;10.806;2023-12-20T05:34:28;1.30;;;1.00;;
16737;SDS011;17906;47.684;10.806;2023-12-20T05:36:55;1.57;;;0.83;;
16737;SDS011;17906;47.684;10.806;2023-12-20T05:39:21;2.70;;;1.00;;
16737;SDS011;17906;47.684;10.806;2023-12-20T05:41:48;2.30;;;1.07;;
16737;SDS011;17906;47.684;10.806;2023-12-20T05:44:15;4.37;;;1.20;;
16737;SDS011;17906;47.684;10.806;2023-12-20T05:46:41;3.27;;;1.27;;
16737;SDS011;17906;47.684;10.806;2023-12-20T05:49:10;1.93;;;1.20;;
16737;SDS011;17906;47.684;10.806;2023-12-20T05:51:36;3.37;;;1.33;;
16737;SDS011;17906;47.684;10.806;2023-12-20T05:54:03;2.43;;;1.30;;
16737;SDS011;17906;47.684;10.806;2023-12-20T05:56:30;1.83;;;1.30;;
16737;SDS011;17906;47.684;10.806;2023-12-20T05:58:56;2.33;;;1.37;;
16737;SDS011;17906;47.684;10.806;2023-12-20T06:01:23;2.37;;;1.50;;
16737;SDS011;17906;47.684;10.806;2023-12-20T06:03:50;2.53;;;1.40;;
16737;SDS011;17906;47.684;10.806;2023-12-20T06:06:18;2.70;;;1.27;;
16737;SDS011;17906;47.684;10.806;2023-12-20T06:08:45;4.40;;;1.57;;
16737;SDS011;17906;47.684;10.806;2023-12-20T06:11:11;1.93;;;1.50;;
16737;SDS011;17906;47.684;10.806;2023-12-20T06:13:38;3.03;;;1.80;;
16737;SDS011;17906;47.684;10.806;2023-12-20T06:16:05;2.57;;;1.40;;
16737;SDS011;17906;47.684;10.806;2023-12-20T06:18:32;3.53;;;1.60;;
16737;SDS011;17906;47.684;10.806;2023-12-20T06:20:59;2.73;;;1.80;;
16737;SDS011;17906;47.684;10.806;2023-12-20T06:23:27;2.97;;;1.60;;
16737;SDS011;17906;47.684;10.806;2023-12-20T06:25:54;2.13;;;1.47;;
16737;SDS011;17906;47.684;10.806;2023-12-20T06:28:20;1.93;;;1.30;;
16737;SDS011;17906;47.684;10.806;2023-12-20T06:30:47;1.67;;;1.30;;
16737;SDS011;17906;47.684;10.806;2023-12-20T06:33:14;5.13;;;1.63;;
16737;SDS011;17906;47.684;10.806;2023-12-20T06:35:41;2.40;;;1.53;;
16737;SDS011;17906;47.684;10.806;2023-12-20T06:38:08;2.20;;;1.10;;
16737;SDS011;17906;47.684;10.806;2023-12-20T06:40:36;2.23;;;1.23;;
16737;SDS011;17906;47.684;10.806;2023-12-20T06:43:02;2.40;;;1.23;;
16737;SDS011;17906;47.684;10.806;2023-12-20T06:45:29;1.90;;;1.40;;
16737;SDS011;17906;47.684;10.806;2023-12-20T06:47:56;2.00;;;1.20;;
16737;SDS011;17906;47.684;10.806;2023-12-20T06:50:23;1.77;;;1.00;;
16737;SDS011;17906;47.684;10.806;2023-12-20T06:52:50;1.57;;;1.10;;
16737;SDS011;17906;47.684;10.806;2023-12-20T06:55:16;3.00;;;2.00;;
16737;SDS011;17906;47.684;10.806;2023-12-20T06:57:44;1.80;;;1.20;;
16737;SDS011;17906;47.684;10.806;2023-12-20T07:00:11;1.43;;;0.80;;
16737;SDS011;17906;47.684;10.806;2023-12-20T07:02:39;1.30;;;0.70;;
16737;SDS011;17906;47.684;10.806;2023-12-20T07:05:05;0.77;;;0.50;;
16737;SDS011;17906;47.684;10.806;2023-12-20T07:07:33;0.97;;;0.60;;
16737;SDS011;17906;47.684;10.806;2023-12-20T07:10:00;0.63;;;0.43;;
16737;SDS011;17906;47.684;10.806;2023-12-20T07:12:26;0.60;;;0.47;;
16737;SDS011;17906;47.684;10.806;2023-12-20T07:14:55;0.40;;;0.40;;
16737;SDS011;17906;47.684;10.806;2023-12-20T07:17:22;0.60;;;0.40;;
16737;SDS011;17906;47.684;10.806;2023-12-20T07:19:48;0.23;;;0.20;;
16737;SDS011;17906;47.684;10.806;2023-12-20T07:22:15;0.63;;;0.40;;
16737;SDS011;17906;47.684;10.806;2023-12-20T07:24:42;0.63;;;0.30;;
16737;SDS011;17906;47.684;10.806;2023-12-20T07:27:08;0.70;;;0.30;;
16737;SDS011;17906;47.684;10.806;2023-12-20T07:29:35;0.37;;;0.27;;
16737;SDS011;17906;47.684;10.806;2023-12-20T07:32:03;1.60;;;0.97;;
16737;SDS011;17906;47.684;10.806;2023-12-20T07:34:30;0.60;;;0.50;;
16737;SDS011;17906;47.684;10.806;2023-12-20T07:36:57;0.40;;;0.30;;
16737;SDS011;17906;47.684;10.806;2023-12-20T07:39:23;0.40;;;0.30;;
16737;SDS011;17906;47.684;10.806;2023-12-20T07:41:50;0.50;;;0.30;;
16737;SDS011;17906;47.684;10.806;2023-12-20T07:44:16;0.23;;;0.20;;
16737;SDS011;17906;47.684;10.806;2023-12-20T07:46:43;0.37;;;0.17;;
16737;SDS011;17906;47.684;10.806;2023-12-20T07:49:11;0.10;;;0.10;;
16737;SDS011;17906;47.684;10.806;2023-12-20T07:51:37;0.30;;;0.10;;
16737;SDS011;17906;47.684;10.806;2023-12-20T07:54:04;0.30;;;0.10;;
16737;SDS011;17906;47.684;10.806;2023-12-20T07:56:33;0.40;;;0.20;;
16737;SDS011;17906;47.684;10.806;2023-12-20T07:58:59;0.20;;;0.20;;
16737;SDS011;17906;47.684;10.806;2023-12-20T08:01:26;0.13;;;0.10;;
16737;SDS011;17906;47.684;10.806;2023-12-20T08:03:53;0.20;;;0.10;;
16737;SDS011;17906;47.684;10.806;2023-12-20T08:06:21;0.23;;;0.10;;
16737;SDS011;17906;47.684;10.806;2023-12-20T08:08:48;0.10;;;0.07;;
16737;SDS011;17906;47.684;10.806;2023-12-20T08:11:14;0.20;;;0.10;;
16737;SDS011;17906;47.684;10.806;2023-12-20T08:13:41;1.73;;;0.70;;
16737;SDS011;17906;47.684;10.806;2023-12-20T08:16:07;1.13;;;0.60;;
16737;SDS011;17906;47.684;10.806;2023-12-20T08:18:34;0.40;;;0.27;;
16737;SDS011;17906;47.684;10.806;2023-12-20T08:21:00;0.20;;;0.10;;
16737;SDS011;17906;47.684;10.806;2023-12-20T08:23:28;0.70;;;0.40;;
16737;SDS011;17906;47.684;10.806;2023-12-20T08:25:55;0.53;;;0.33;;
16737;SDS011;17906;47.684;10.806;2023-12-20T08:28:22;0.40;;;0.10;;
16737;SDS011;17906;47.684;10.806;2023-12-20T08:30:48;0.87;;;0.37;;
16737;SDS011;17906;47.684;10.806;2023-12-20T08:33:18;0.20;;;0.20;;
16737;SDS011;17906;47.684;10.806;2023-12-20T08:35:45;0.70;;;0.40;;
16737;SDS011;17906;47.684;10.806;2023-12-20T08:38:11;0.40;;;0.10;;
16737;SDS011;17906;47.684;10.806;2023-12-20T08:40:39;0.43;;;0.20;;
16737;SDS011;17906;47.684;10.806;2023-12-20T08:43:06;0.33;;;0.20;;
16737;SDS011;17906;47.684;10.806;2023-12-20T08:45:33;0.50;;;0.20;;
16737;SDS011;17906;47.684;10.806;2023-12-20T08:47:59;0.20;;;0.10;;
16737;SDS011;17906;47.684;10.806;2023-12-20T08:50:26;0.33;;;0.20;;
16737;SDS011;17906;47.684;10.806;2023-12-20T08:52:53;1.07;;;0.17;;
16737;SDS011;17906;47.684;10.806;2023-12-20T08:55:19;0.30;;;0.20;;
16737;SDS011;17906;47.684;10.806;2023-12-20T08:57:47;0.20;;;0.00;;
16737;SDS011;17906;47.684;10.806;2023-12-20T09:00:14;0.00;;;0.00;;
16737;SDS011;17906;47.684;10.806;2023-12-20T09:02:41;0.70;;;0.40;;
16737;SDS011;17906;47.684;10.806;2023-12-20T09:05:08;0.20;;;0.10;;
16737;SDS011;17906;47.684;10.806;2023-12-20T09:07:34;0.40;;;0.20;;
16737;SDS011;17906;47.684;10.806;2023-12-20T09:10:01;0.60;;;0.20;;
16737;SDS011;17906;47.684;10.806;2023-12-20T09:12:28;0.33;;;0.20;;
16737;SDS011;17906;47.684;10.806;2023-12-20T09:14:57;0.10;;;0.10;;
16737;SDS011;17906;47.684;10.806;2023-12-20T09:17:23;0.20;;;0.10;;
16737;SDS011;17906;47.684;10.806;2023-12-20T09:19:50;0.30;;;0.10;;
16737;SDS011;17906;47.684;10.806;2023-12-20T09:22:17;0.10;;;0.10;;
16737;SDS011;17906;47.684;10.806;2023-12-20T09:24:44;0.20;;;0.10;;
16737;SDS011;17906;47.684;10.806;2023-12-20T09:27:11;0.00;;;0.00;;
16737;SDS011;17906;47.684;10.806;2023-12-20T09:29:37;0.20;;;0.17;;
16737;SDS011;17906;47.684;10.806;2023-12-20T09:32:05;0.10;;;0.10;;
16737;SDS011;17906;47.684;10.806;2023-12-20T09:34:33;1.60;;;1.30;;
16737;SDS011;17906;47.684;10.806;2023-12-20T09:36:59;0.63;;;0.60;;
16737;SDS011;17906;47.684;10.806;2023-12-20T09:39:26;0.20;;;0.20;;
16737;SDS011;17906;47.684;10.806;2023-12-20T09:41:57;0.10;;;0.00;;
16737;SDS011;17906;47.684;10.806;2023-12-20T09:44:27;0.10;;;0.00;;
16737;SDS011;17906;47.684;10.806;2023-12-20T09:46:54;0.60;;;0.10;;
16737;SDS011;17906;47.684;10.806;2023-12-20T09:49:23;0.10;;;0.10;;
16737;SDS011;17906;47.684;10.806;2023-12-20T09:51:51;0.60;;;0.37;;
16737;SDS011;17906;47.684;10.806;2023-12-20T09:54:20;0.10;;;0.10;;
16737;SDS011;17906;47.684;10.806;2023-12-20T09:56:47;0.30;;;0.00;;
16737;SDS011;17906;47.684;10.806;2023-12-20T09:59:14;0.30;;;0.10;;
16737;SDS011;17906;47.684;10.806;2023-12-20T10:01:41;0.00;;;0.00;;
16737;SDS011;17906;47.684;10.806;2023-12-20T10:04:09;1.70;;;0.20;;
16737;SDS011;17906;47.684;10.806;2023-12-20T10:06:39;1.70;;;0.00;;
16737;SDS011;17906;47.684;10.806;2023-12-20T10:09:05;0.30;;;0.10;;
16737;SDS011;17906;47.684;10.806;2023-12-20T10:11:32;0.13;;;0.00;;
16737;SDS011;17906;47.684;10.806;2023-12-20T10:13:59;0.30;;;0.10;;
16737;SDS011;17906;47.684;10.806;2023-12-20T10:16:26;0.20;;;0.10;;
16737;SDS011;17906;47.684;10.806;2023-12-20T10:18:53;0.20;;;0.13;;
16737;SDS011;17906;47.684;10.806;2023-12-20T10:21:19;0.20;;;0.10;;
16737;SDS011;17906;47.684;10.806;2023-12-20T10:23:49;1.13;;;0.60;;
16737;SDS011;17906;47.684;10.806;2023-12-20T10:26:19;0.10;;;0.10;;
16737;SDS011;17906;47.684;10.806;2023-12-20T10:28:46;0.23;;;0.00;;
16737;SDS011;17906;47.684;10.806;2023-12-20T10:31:27;0.10;;;0.00;;
16737;SDS011;17906;47.684;10.806;2023-12-20T10:33:56;0.30;;;0.10;;
16737;SDS011;17906;47.684;10.806;2023-12-20T10:36:24;0.10;;;0.10;;
16737;SDS011;17906;47.684;10.806;2023-12-20T10:38:53;0.23;;;0.10;;
16737;SDS011;17906;47.684;10.806;2023-12-20T10:41:23;0.07;;;0.00;;
16737;SDS011;17906;47.684;10.806;2023-12-20T10:43:53;0.47;;;0.10;;
16737;SDS011;17906;47.684;10.806;2023-12-20T10:46:21;0.20;;;0.10;;
16737;SDS011;17906;47.684;10.806;2023-12-20T10:48:48;1.10;;;0.63;;
16737;SDS011;17906;47.684;10.806;2023-12-20T10:51:18;0.10;;;0.10;;
16737;SDS011;17906;47.684;10.806;2023-12-20T10:53:45;0.70;;;0.50;;
16737;SDS011;17906;47.684;10.806;2023-12-20T10:56:15;0.00;;;0.00;;
16737;SDS011;17906;47.684;10.806;2023-12-20T10:58:43;2.80;;;1.00;;
16737;SDS011;17906;47.684;10.806;2023-12-20T11:01:10;1.53;;;0.70;;
16737;SDS011;17906;47.684;10.806;2023-12-20T11:03:39;0.53;;;0.30;;
16737;SDS011;17906;47.684;10.806;2023-12-20T11:08:58;3.57;;;1.77;;
16737;SDS011;17906;47.684;10.806;2023-12-20T11:11:37;0.70;;;0.50;;
16737;SDS011;17906;47.684;10.806;2023-12-20T11:14:15;0.10;;;0.10;;
16737;SDS011;17906;47.684;10.806;2023-12-20T11:16:46;0.10;;;0.10;;
16737;SDS011;17906;47.684;10.806;2023-12-20T11:19:13;0.67;;;0.40;;
16737;SDS011;17906;47.684;10.806;2023-12-20T11:21:40;0.00;;;0.00;;
16737;SDS011;17906;47.684;10.806;2023-12-20T11:24:07;1.00;;;0.10;;
16737;SDS011;17906;47.684;10.806;2023-12-20T11:26:33;0.17;;;0.07;;
16737;SDS011;17906;47.684;10.806;2023-12-20T11:31:59;0.20;;;0.10;;
16737;SDS011;17906;47.684;10.806;2023-12-20T11:34:26;1.03;;;0.20;;
16737;SDS011;17906;47.684;10.806;2023-12-20T11:36:56;0.50;;;0.20;;
16737;SDS011;17906;47.684;10.806;2023-12-20T11:39:23;0.10;;;0.10;;
16737;SDS011;17906;47.684;10.806;2023-12-20T11:41:52;0.20;;;0.10;;
16737;SDS011;17906;47.684;10.806;2023-12-20T11:44:20;0.10;;;0.10;;
16737;SDS011;17906;47.684;10.806;2023-12-20T11:46:48;1.80;;;0.20;;
16737;SDS011;17906;47.684;10.806;2023-12-20T11:49:15;0.10;;;0.10;;
16737;SDS011;17906;47.684;10.806;2023-12-20T11:51:42;0.50;;;0.30;;
16737;SDS011;17906;47.684;10.806;2023-12-20T11:54:10;0.60;;;0.20;;
16737;SDS011;17906;47.684;10.806;2023-12-20T11:56:37;0.30;;;0.13;;
16737;SDS011;17906;47.684;10.806;2023-12-20T11:59:04;1.70;;;0.20;;
16737;SDS011;17906;47.684;10.806;2023-12-20T12:01:31;0.20;;;0.20;;
16737;SDS011;17906;47.684;10.806;2023-12-20T12:04:05;0.03;;;0.00;;
16737;SDS011;17906;47.684;10.806;2023-12-20T12:06:32;0.40;;;0.20;;
16737;SDS011;17906;47.684;10.806;2023-12-20T12:08:58;0.00;;;0.00;;
16737;SDS011;17906;47.684;10.806;2023-12-20T12:11:25;1.47;;;0.10;;
16737;SDS011;17906;47.684;10.806;2023-12-20T12:13:52;0.17;;;0.10;;
16737;SDS011;17906;47.684;10.806;2023-12-20T12:16:19;0.07;;;0.00;;
16737;SDS011;17906;47.684;10.806;2023-12-20T12:18:46;0.00;;;0.00;;
16737;SDS011;17906;47.684;10.806;2023-12-20T12:21:22;0.10;;;0.10;;
16737;SDS011;17906;47.684;10.806;2023-12-20T12:23:48;0.10;;;0.10;;
16737;SDS011;17906;47.684;10.806;2023-12-20T12:26:15;0.40;;;0.10;;
16737;SDS011;17906;47.684;10.806;2023-12-20T12:28:42;0.33;;;0.20;;
16737;SDS011;17906;47.684;10.806;2023-12-20T12:31:12;0.20;;;0.10;;
16737;SDS011;17906;47.684;10.806;2023-12-20T12:33:41;0.17;;;0.10;;
16737;SDS011;17906;47.684;10.806;2023-12-20T12:36:08;0.27;;;0.17;;
16737;SDS011;17906;47.684;10.806;2023-12-20T12:38:37;0.10;;;0.10;;
16737;SDS011;17906;47.684;10.806;2023-12-20T12:41:04;0.43;;;0.17;;
16737;SDS011;17906;47.684;10.806;2023-12-20T12:43:32;0.30;;;0.20;;
16737;SDS011;17906;47.684;10.806;2023-12-20T12:45:59;1.57;;;0.10;;
16737;SDS011;17906;47.684;10.806;2023-12-20T12:48:25;0.33;;;0.20;;
16737;SDS011;17906;47.684;10.806;2023-12-20T12:50:53;0.30;;;0.20;;
16737;SDS011;17906;47.684;10.806;2023-12-20T12:53:22;0.60;;;0.20;;
16737;SDS011;17906;47.684;10.806;2023-12-20T12:55:50;0.77;;;0.30;;
16737;SDS011;17906;47.684;10.806;2023-12-20T12:58:16;0.77;;;0.27;;
16737;SDS011;17906;47.684;10.806;2023-12-20T13:00:43;0.37;;;0.20;;
16737;SDS011;17906;47.684;10.806;2023-12-20T13:03:10;0.47;;;0.30;;
16737;SDS011;17906;47.684;10.806;2023-12-20T13:05:36;0.20;;;0.20;;
16737;SDS011;17906;47.684;10.806;2023-12-20T13:08:03;2.87;;;0.30;;
16737;SDS011;17906;47.684;10.806;2023-12-20T13:10:30;0.50;;;0.20;;
16737;SDS011;17906;47.684;10.806;2023-12-20T13:12:58;0.57;;;0.30;;
16737;SDS011;17906;47.684;10.806;2023-12-20T13:15:25;0.50;;;0.30;;
16737;SDS011;17906;47.684;10.806;2023-12-20T13:17:51;0.50;;;0.30;;
16737;SDS011;17906;47.684;10.806;2023-12-20T13:20:18;2.37;;;0.50;;
16737;SDS011;17906;47.684;10.806;2023-12-20T13:22:45;0.97;;;0.47;;
16737;SDS011;17906;47.684;10.806;2023-12-20T13:25:12;0.70;;;0.40;;
16737;SDS011;17906;47.684;10.806;2023-12-20T13:27:38;0.50;;;0.30;;
16737;SDS011;17906;47.684;10.806;2023-12-20T13:30:07;0.70;;;0.40;;
16737;SDS011;17906;47.684;10.806;2023-12-20T13:32:34;0.60;;;0.40;;
16737;SDS011;17906;47.684;10.806;2023-12-20T13:35:00;1.27;;;0.40;;
16737;SDS011;17906;47.684;10.806;2023-12-20T13:37:28;0.50;;;0.37;;
16737;SDS011;17906;47.684;10.806;2023-12-20T13:39:56;0.60;;;0.43;;
16737;SDS011;17906;47.684;10.806;2023-12-20T13:42:22;0.60;;;0.30;;
16737;SDS011;17906;47.684;10.806;2023-12-20T13:44:49;0.80;;;0.57;;
16737;SDS011;17906;47.684;10.806;2023-12-20T13:47:17;2.23;;;1.17;;
16737;SDS011;17906;47.684;10.806;2023-12-20T13:49:44;2.20;;;0.70;;
16737;SDS011;17906;47.684;10.806;2023-12-20T13:52:11;0.80;;;0.60;;
16737;SDS011;17906;47.684;10.806;2023-12-20T13:54:38;0.60;;;0.40;;
16737;SDS011;17906;47.684;10.806;2023-12-20T13:57:04;0.53;;;0.30;;
16737;SDS011;17906;47.684;10.806;2023-12-20T13:59:31;0.60;;;0.50;;
16737;SDS011;17906;47.684;10.806;2023-12-20T14:01:58;1.27;;;0.70;;
16737;SDS011;17906;47.684;10.806;2023-12-20T14:04:27;0.87;;;0.67;;
16737;SDS011;17906;47.684;10.806;2023-12-20T14:06:54;0.83;;;0.63;;
16737;SDS011;17906;47.684;10.806;2023-12-20T14:09:20;0.90;;;0.70;;
16737;SDS011;17906;47.684;10.806;2023-12-20T14:11:47;34.77;;;3.23;;
16737;SDS011;17906;47.684;10.806;2023-12-20T14:14:13;1.00;;;0.60;;
16737;SDS011;17906;47.684;10.806;2023-12-20T14:16:40;1.20;;;0.80;;
16737;SDS011;17906;47.684;10.806;2023-12-20T14:19:10;1.40;;;0.87;;
16737;SDS011;17906;47.684;10.806;2023-12-20T14:21:38;1.00;;;0.90;;
16737;SDS011;17906;47.684;10.806;2023-12-20T14:24:04;2.83;;;1.10;;
16737;SDS011;17906;47.684;10.806;2023-12-20T14:26:31;1.23;;;0.90;;
16737;SDS011;17906;47.684;10.806;2023-12-20T14:28:58;1.47;;;0.70;;
16737;SDS011;17906;47.684;10.806;2023-12-20T14:31:25;1.30;;;0.70;;
16737;SDS011;17906;47.684;10.806;2023-12-20T14:33:51;1.10;;;0.80;;
16737;SDS011;17906;47.684;10.806;2023-12-20T14:36:19;1.10;;;0.80;;
16737;SDS011;17906;47.684;10.806;2023-12-20T14:38:47;1.13;;;0.80;;